Time;durP1;ratioP1;P1;durP2;ratioP2;P2;SDS_P1;SDS_P2;PMS_P1;PMS_P2;Temp;Humidity;BMP_temperature;BMP_pressure;BME280_temperature;BME280_humidity;BME280_pressure;Samples;Min_cycle;Max_cycle;Signal;HPM_P1;HPM_P2
2022/12/16 00:00:23;;;;;;;44.03;24.93;;;-0.90;99.90;;;;;;6313789;22;20214;-87
2022/12/16 00:02:49;;;;;;;50.10;26.30;;;-0.90;99.90;;;;;;6313975;22;20160;-88
2022/12/16 00:05:16;;;;;;;44.23;25.43;;;-0.90;99.90;;;;;;6313775;22;20218;-88
2022/12/16 00:07:41;;;;;;;49.67;25.40;;;-0.90;99.90;;;;;;6339852;22;20178;-87
2022/12/16 00:10:08;;;;;;;47.97;26.30;;;-0.90;99.90;;;;;;6314205;22;20151;-87
2022/12/16 00:12:34;;;;;;;47.57;26.97;;;-0.90;99.90;;;;;;6313720;22;20238;-87
2022/12/16 00:15:00;;;;;;;47.57;26.27;;;-0.90;99.90;;;;;;6314134;22;20187;-87
2022/12/16 00:17:26;;;;;;;45.57;25.80;;;-0.90;99.90;;;;;;6314426;22;20180;-88
2022/12/16 00:19:52;;;;;;;50.30;26.57;;;-0.90;99.90;;;;;;6314176;22;20167;-87
2022/12/16 00:22:18;;;;;;;48.57;26.10;;;-0.90;99.90;;;;;;6317221;22;20207;-88
2022/12/16 00:24:44;;;;;;;47.70;26.33;;;-0.90;99.90;;;;;;6316995;22;20214;-88
2022/12/16 00:27:10;;;;;;;48.10;25.53;;;-0.90;99.90;;;;;;6317132;22;20187;-87
2022/12/16 00:29:36;;;;;;;46.00;25.80;;;-1.00;99.90;;;;;;6317124;22;20184;-87
2022/12/16 00:32:02;;;;;;;46.33;26.30;;;-1.00;99.90;;;;;;6316868;22;20174;-87
2022/12/16 00:34:28;;;;;;;49.93;27.03;;;-1.00;99.90;;;;;;6315726;22;20240;-88
2022/12/16 00:36:54;;;;;;;48.23;27.17;;;-1.00;99.90;;;;;;6341433;22;20172;-88
2022/12/16 00:39:20;;;;;;;50.30;27.13;;;-1.00;99.90;;;;;;6315867;22;20162;-87
2022/12/16 00:41:49;;;;;;;48.00;26.57;;;-1.00;99.90;;;;;;6315755;22;20166;-87
2022/12/16 00:44:15;;;;;;;50.43;27.57;;;-1.00;99.90;;;;;;6315308;22;20188;-87
2022/12/16 00:46:42;;;;;;;55.20;28.17;;;-1.10;99.90;;;;;;6316045;22;20207;-87
2022/12/16 00:49:08;;;;;;;48.40;26.63;;;-1.10;99.90;;;;;;6315269;22;20201;-87
2022/12/16 00:51:34;;;;;;;52.07;28.77;;;-1.10;99.90;;;;;;6315414;22;20155;-88
2022/12/16 00:54:00;;;;;;;52.10;28.60;;;-1.20;99.90;;;;;;6315491;22;20159;-87
2022/12/16 00:56:26;;;;;;;51.93;27.80;;;-1.20;99.90;;;;;;6315391;22;20185;-87
2022/12/16 00:58:52;;;;;;;48.87;25.73;;;-1.20;99.90;;;;;;6315151;22;20154;-88
2022/12/16 01:01:18;;;;;;;46.97;27.37;;;-1.20;99.90;;;;;;6315638;22;20159;-87
2022/12/16 01:03:44;;;;;;;54.00;28.37;;;-1.30;99.90;;;;;;6315255;22;20184;-87
2022/12/16 01:06:15;;;;;;;51.67;27.50;;;-1.30;99.90;;;;;;6315641;22;20245;-87
2022/12/16 01:08:47;;;;;;;49.83;27.93;;;-1.30;99.90;;;;;;6314965;22;20181;-87
2022/12/16 01:11:18;;;;;;;52.20;26.77;;;-1.30;99.90;;;;;;6317073;22;20597;-88
2022/12/16 01:13:45;;;;;;;51.97;28.07;;;-1.30;99.90;;;;;;6316961;22;20204;-87
2022/12/16 01:16:11;;;;;;;51.80;27.93;;;-1.30;99.90;;;;;;6316849;22;20159;-87
2022/12/16 01:18:37;;;;;;;50.33;27.90;;;-1.30;99.90;;;;;;6315928;22;20368;-87
2022/12/16 01:21:05;;;;;;;50.07;27.80;;;-1.40;99.90;;;;;;6315678;22;20155;-87
2022/12/16 01:23:32;;;;;;;54.20;27.30;;;-1.30;99.90;;;;;;6314953;22;20151;-87
2022/12/16 01:25:59;;;;;;;48.40;26.57;;;-1.30;99.90;;;;;;6315153;22;20159;-87
2022/12/16 01:28:26;;;;;;;51.23;27.20;;;-1.30;99.90;;;;;;6314189;22;20218;-88
2022/12/16 01:31:02;;;;;;;49.67;28.60;;;-1.30;99.90;;;;;;6315025;22;20151;-87
2022/12/16 01:33:31;;;;;;;50.47;27.83;;;-1.40;99.90;;;;;;6314534;22;20186;-88
2022/12/16 01:36:03;;;;;;;52.47;28.70;;;-1.40;99.90;;;;;;6315440;22;20588;-87
2022/12/16 01:38:29;;;;;;;53.70;29.20;;;-1.40;99.90;;;;;;6315070;22;20174;-87
2022/12/16 01:40:56;;;;;;;54.30;29.00;;;-1.40;99.90;;;;;;6315396;22;20224;-87
2022/12/16 01:43:25;;;;;;;47.33;27.07;;;-1.50;99.90;;;;;;6314569;22;20155;-87
2022/12/16 01:45:55;;;;;;;50.00;26.73;;;-1.60;99.90;;;;;;6315033;22;20166;-87
2022/12/16 01:48:26;;;;;;;49.57;27.83;;;-1.60;99.90;;;;;;6314982;22;20214;-87
2022/12/16 01:50:59;;;;;;;47.90;26.57;;;-1.60;99.90;;;;;;6314994;22;20147;-87
2022/12/16 01:53:25;;;;;;;53.60;27.87;;;-1.70;99.90;;;;;;6314682;22;20151;-88
2022/12/16 01:55:53;;;;;;;51.63;28.80;;;-1.70;99.90;;;;;;6315310;22;20146;-87
2022/12/16 01:58:24;;;;;;;53.60;28.70;;;-1.70;99.90;;;;;;6314718;22;20206;-87
2022/12/16 02:00:51;;;;;;;54.30;27.70;;;-1.70;99.90;;;;;;6315165;22;20150;-87
2022/12/16 02:03:17;;;;;;;53.43;28.63;;;-1.70;99.90;;;;;;6314728;22;20159;-87
2022/12/16 02:05:44;;;;;;;53.37;27.97;;;-1.80;99.90;;;;;;6314488;22;20236;-87
2022/12/16 02:08:18;;;;;;;55.77;28.20;;;-1.80;99.90;;;;;;6314069;22;20185;-87
2022/12/16 02:10:53;;;;;;;55.40;28.53;;;-1.80;99.90;;;;;;6314588;22;20563;-87
2022/12/16 02:13:34;;;;;;;54.53;30.00;;;-1.80;99.90;;;;;;6314357;22;20188;-87
2022/12/16 02:16:10;;;;;;;56.50;28.47;;;-1.80;99.90;;;;;;6314536;22;20147;-87
2022/12/16 02:19:12;;;;;;;61.03;29.60;;;-1.80;99.90;;;;;;6314231;22;20174;-87
2022/12/16 02:21:51;;;;;;;53.60;28.30;;;-1.90;99.90;;;;;;6314952;22;20157;-87
2022/12/16 02:24:17;;;;;;;53.83;28.60;;;-1.90;99.90;;;;;;6314417;22;20178;-87
2022/12/16 02:26:52;;;;;;;56.07;28.90;;;-1.90;99.90;;;;;;6314380;22;20246;-87
2022/12/16 02:29:52;;;;;;;49.77;26.93;;;-1.90;99.90;;;;;;6314676;22;20165;-87
2022/12/16 02:32:42;;;;;;;53.47;27.20;;;-1.90;99.90;;;;;;6314945;22;20162;-87
2022/12/16 02:35:26;;;;;;;51.77;26.77;;;-1.90;99.90;;;;;;6314271;22;20159;-87
2022/12/16 02:38:24;;;;;;;49.20;26.23;;;-1.90;99.90;;;;;;6313922;22;20180;-87
2022/12/16 02:41:20;;;;;;;50.10;26.27;;;-1.90;99.90;;;;;;6307111;22;20158;-87
2022/12/16 02:43:49;;;;;;;51.90;26.53;;;-1.90;99.90;;;;;;6313511;22;20189;-87
2022/12/16 02:46:18;;;;;;;47.77;24.90;;;-1.90;99.90;;;;;;6314451;22;20204;-87
2022/12/16 02:48:43;;;;;;;52.17;26.10;;;-1.90;99.90;;;;;;6313996;22;20157;-87
2022/12/16 02:51:10;;;;;;;47.83;25.40;;;-1.90;99.90;;;;;;6340521;22;20154;-87
2022/12/16 02:53:38;;;;;;;55.83;28.20;;;-1.90;99.90;;;;;;6313731;22;20159;-87
2022/12/16 02:56:10;;;;;;;47.00;26.17;;;-1.90;99.90;;;;;;6314224;22;20197;-87
2022/12/16 02:59:09;;;;;;;51.50;26.10;;;-1.90;99.90;;;;;;6313915;22;20178;-87
2022/12/16 03:01:50;;;;;;;48.23;25.40;;;-1.90;99.90;;;;;;6243948;22;20154;-87
2022/12/16 03:04:40;;;;;;;48.50;25.90;;;-1.90;99.90;;;;;;6314314;22;20234;-87
2022/12/16 03:07:12;;;;;;;48.13;25.80;;;-1.90;99.90;;;;;;6314127;22;20178;-87
2022/12/16 03:09:40;;;;;;;45.47;24.60;;;-1.90;99.90;;;;;;6314492;22;20158;-87
2022/12/16 03:12:11;;;;;;;46.43;24.70;;;-1.90;99.90;;;;;;6313992;22;20155;-87
2022/12/16 03:14:41;;;;;;;43.53;24.73;;;-1.90;99.90;;;;;;6340252;22;20139;-87
2022/12/16 03:17:08;;;;;;;48.20;24.97;;;-2.00;99.90;;;;;;6314234;22;20179;-87
2022/12/16 03:19:40;;;;;;;47.10;24.57;;;-1.90;99.90;;;;;;6313927;22;20182;-87
2022/12/16 03:22:24;;;;;;;48.40;25.93;;;-2.00;99.90;;;;;;6314109;22;20207;-87
2022/12/16 03:24:50;;;;;;;84.13;47.20;;;-1.90;99.90;;;;;;6314333;22;20199;-87
2022/12/16 03:27:31;;;;;;;49.97;26.27;;;-1.90;99.90;;;;;;6313808;22;20186;-87
2022/12/16 03:30:08;;;;;;;47.47;25.57;;;-1.90;99.90;;;;;;6314089;22;20148;-87
2022/12/16 03:32:43;;;;;;;47.33;24.83;;;-1.90;99.90;;;;;;6340218;22;20135;-87
2022/12/16 03:35:15;;;;;;;48.67;25.00;;;-1.90;99.90;;;;;;6340363;22;20150;-87
2022/12/16 03:37:43;;;;;;;51.03;26.87;;;-1.90;99.90;;;;;;6314197;22;20182;-87
2022/12/16 03:40:11;;;;;;;48.93;26.37;;;-1.80;99.90;;;;;;6314483;22;20163;-87
2022/12/16 03:42:39;;;;;;;46.77;25.70;;;-1.80;99.90;;;;;;6314680;22;20169;-87
2022/12/16 03:45:07;;;;;;;52.63;27.97;;;-1.70;99.90;;;;;;6315247;22;20178;-87
2022/12/16 03:47:33;;;;;;;45.17;25.47;;;-1.70;99.90;;;;;;6314755;22;20171;-86
2022/12/16 03:49:59;;;;;;;50.73;27.93;;;-1.60;99.90;;;;;;6315043;22;20154;-87
2022/12/16 03:52:25;;;;;;;47.03;26.00;;;-1.50;99.90;;;;;;6315748;22;20244;-87
2022/12/16 03:54:51;;;;;;;41.87;23.60;;;-1.50;99.90;;;;;;6313543;22;20169;-87
2022/12/16 03:57:16;;;;;;;47.47;26.10;;;-1.50;99.90;;;;;;6313820;22;20176;-87
2022/12/16 03:59:42;;;;;;;39.13;23.17;;;-1.50;99.90;;;;;;6313890;22;20156;-87
2022/12/16 04:02:08;;;;;;;39.60;23.97;;;-1.50;99.90;;;;;;6339875;22;20158;-86
2022/12/16 04:04:34;;;;;;;39.57;23.20;;;-1.40;99.90;;;;;;6313707;22;20186;-87
2022/12/16 04:09:44;;;;;;;42.60;23.17;;;-1.40;99.90;;;;;;6339753;22;20151;-87
2022/12/16 04:26:11;;;;;;;39.80;23.83;;;-1.50;99.90;;;;;;6339302;22;20166;-87
2022/12/16 04:28:37;;;;;;;43.23;23.70;;;-1.50;99.90;;;;;;6312464;22;20198;-86
2022/12/16 04:31:03;;;;;;;39.00;22.27;;;-1.50;99.90;;;;;;6313643;22;20233;-87
